sensor_id;sensor_type;location;lat;lon;timestamp;temperature;humidity
67165;SHT31;54093;50.014;19.984;2023-11-21T00:02:44;8.68;87.61
67165;SHT31;54093;50.014;19.984;2023-11-21T00:12:06;8.65;87.99
67165;SHT31;54093;50.014;19.984;2023-11-21T00:21:31;8.63;88.17
67165;SHT31;54093;50.014;19.984;2023-11-21T00:30:58;8.54;88.57
67165;SHT31;54093;50.014;19.984;2023-11-21T00:40:19;8.50;88.85
67165;SHT31;54093;50.014;19.984;2023-11-21T00:49:41;8.49;89.12
67165;SHT31;54093;50.014;19.984;2023-11-21T00:59:06;8.47;89.33
67165;SHT31;54093;50.014;19.984;2023-11-21T01:08:30;8.57;89.06
67165;SHT31;54093;50.014;19.984;2023-11-21T01:17:56;8.53;89.03
67165;SHT31;54093;50.014;19.984;2023-11-21T01:27:21;8.57;88.57
67165;SHT31;54093;50.014;19.984;2023-11-21T01:36:46;8.50;88.69
67165;SHT31;54093;50.014;19.984;2023-11-21T01:46:08;8.56;88.23
67165;SHT31;54093;50.014;19.984;2023-11-21T01:55:30;8.56;88.49
67165;SHT31;54093;50.014;19.984;2023-11-21T02:04:51;8.44;88.80
67165;SHT31;54093;50.014;19.984;2023-11-21T02:14:12;8.46;88.57
67165;SHT31;54093;50.014;19.984;2023-11-21T02:23:34;8.54;87.46
67165;SHT31;54093;50.014;19.984;2023-11-21T02:33:00;8.51;87.35
67165;SHT31;54093;50.014;19.984;2023-11-21T02:42:21;8.51;87.21
67165;SHT31;54093;50.014;19.984;2023-11-21T02:51:45;8.54;86.53
67165;SHT31;54093;50.014;19.984;2023-11-21T03:01:09;8.40;87.06
67165;SHT31;54093;50.014;19.984;2023-11-21T03:10:31;8.44;86.43
67165;SHT31;54093;50.014;19.984;2023-11-21T03:19:52;8.46;85.63
67165;SHT31;54093;50.014;19.984;2023-11-21T03:29:14;8.37;85.85
67165;SHT31;54093;50.014;19.984;2023-11-21T03:38:36;8.39;85.69
67165;SHT31;54093;50.014;19.984;2023-11-21T03:47:58;8.46;85.11
67165;SHT31;54093;50.014;19.984;2023-11-21T03:57:19;8.32;85.36
67165;SHT31;54093;50.014;19.984;2023-11-21T04:06:42;8.23;85.82
67165;SHT31;54093;50.014;19.984;2023-11-21T04:16:07;8.26;85.09
67165;SHT31;54093;50.014;19.984;2023-11-21T04:25:29;8.26;85.06
67165;SHT31;54093;50.014;19.984;2023-11-21T04:34:53;8.22;85.22
67165;SHT31;54093;50.014;19.984;2023-11-21T04:44:14;8.26;85.17
67165;SHT31;54093;50.014;19.984;2023-11-21T04:53:37;8.20;85.39
67165;SHT31;54093;50.014;19.984;2023-11-21T05:02:58;8.16;85.78
67165;SHT31;54093;50.014;19.984;2023-11-21T05:12:22;8.19;86.02
67165;SHT31;54093;50.014;19.984;2023-11-21T05:21:44;8.12;86.44
67165;SHT31;54093;50.014;19.984;2023-11-21T05:31:10;8.03;86.43
67165;SHT31;54093;50.014;19.984;2023-11-21T05:40:31;8.03;86.77
67165;SHT31;54093;50.014;19.984;2023-11-21T05:49:52;8.02;87.03
67165;SHT31;54093;50.014;19.984;2023-11-21T05:59:16;7.96;87.82
67165;SHT31;54093;50.014;19.984;2023-11-21T06:08:37;7.93;87.88
67165;SHT31;54093;50.014;19.984;2023-11-21T06:17:58;7.89;88.23
67165;SHT31;54093;50.014;19.984;2023-11-21T06:27:20;7.89;88.57
67165;SHT31;54093;50.014;19.984;2023-11-21T06:36:41;7.91;88.70
67165;SHT31;54093;50.014;19.984;2023-11-21T06:46:07;7.93;88.30
67165;SHT31;54093;50.014;19.984;2023-11-21T06:55:37;8.02;87.38
67165;SHT31;54093;50.014;19.984;2023-11-21T07:04:58;8.03;87.71
67165;SHT31;54093;50.014;19.984;2023-11-21T07:14:20;7.99;87.52
67165;SHT31;54093;50.014;19.984;2023-11-21T07:23:41;8.03;87.51
67165;SHT31;54093;50.014;19.984;2023-11-21T07:33:05;8.02;87.36
67165;SHT31;54093;50.014;19.984;2023-11-21T07:42:29;7.99;87.51
67165;SHT31;54093;50.014;19.984;2023-11-21T07:51:50;8.12;86.70
67165;SHT31;54093;50.014;19.984;2023-11-21T08:01:21;8.07;87.11
67165;SHT31;54093;50.014;19.984;2023-11-21T08:10:48;8.07;87.13
67165;SHT31;54093;50.014;19.984;2023-11-21T08:20:20;8.05;87.83
67165;SHT31;54093;50.014;19.984;2023-11-21T08:29:50;8.05;87.19
67165;SHT31;54093;50.014;19.984;2023-11-21T08:39:17;8.09;87.41
67165;SHT31;54093;50.014;19.984;2023-11-21T08:48:41;8.09;86.68
67165;SHT31;54093;50.014;19.984;2023-11-21T08:58:04;8.02;87.44
67165;SHT31;54093;50.014;19.984;2023-11-21T09:07:38;8.06;87.42
67165;SHT31;54093;50.014;19.984;2023-11-21T09:17:25;8.14;87.25
67165;SHT31;54093;50.014;19.984;2023-11-21T09:26:46;8.13;87.67
67165;SHT31;54093;50.014;19.984;2023-11-21T09:36:11;8.25;86.86
67165;SHT31;54093;50.014;19.984;2023-11-21T09:45:38;8.28;87.01
67165;SHT31;54093;50.014;19.984;2023-11-21T09:55:02;8.32;86.91
67165;SHT31;54093;50.014;19.984;2023-11-21T10:04:29;8.34;87.31
67165;SHT31;54093;50.014;19.984;2023-11-21T10:13:57;8.37;86.82
67165;SHT31;54093;50.014;19.984;2023-11-21T10:23:22;8.44;87.26
67165;SHT31;54093;50.014;19.984;2023-11-21T10:32:53;8.51;87.19
67165;SHT31;54093;50.014;19.984;2023-11-21T10:42:21;8.74;84.01
67165;SHT31;54093;50.014;19.984;2023-11-21T10:51:49;8.72;84.17
67165;SHT31;54093;50.014;19.984;2023-11-21T11:01:18;8.64;83.35
67165;SHT31;54093;50.014;19.984;2023-11-21T11:11:06;8.54;84.06
67165;SHT31;54093;50.014;19.984;2023-11-21T11:20:33;8.49;84.41
67165;SHT31;54093;50.014;19.984;2023-11-21T11:30:05;8.57;83.42
67165;SHT31;54093;50.014;19.984;2023-11-21T11:39:39;8.50;84.04
67165;SHT31;54093;50.014;19.984;2023-11-21T11:49:27;8.54;83.67
67165;SHT31;54093;50.014;19.984;2023-11-21T11:59:03;8.67;83.30
67165;SHT31;54093;50.014;19.984;2023-11-21T12:08:37;8.64;81.23
67165;SHT31;54093;50.014;19.984;2023-11-21T12:17:59;8.71;81.37
67165;SHT31;54093;50.014;19.984;2023-11-21T12:27:23;8.75;81.44
67165;SHT31;54093;50.014;19.984;2023-11-21T12:36:45;8.81;80.15
67165;SHT31;54093;50.014;19.984;2023-11-21T12:46:07;8.82;80.36
67165;SHT31;54093;50.014;19.984;2023-11-21T12:55:33;8.71;80.94
67165;SHT31;54093;50.014;19.984;2023-11-21T13:04:58;8.89;79.58
67165;SHT31;54093;50.014;19.984;2023-11-21T13:14:19;8.79;80.50
67165;SHT31;54093;50.014;19.984;2023-11-21T13:23:42;8.81;79.95
67165;SHT31;54093;50.014;19.984;2023-11-21T13:33:06;8.68;81.02
67165;SHT31;54093;50.014;19.984;2023-11-21T13:42:28;8.81;79.79
67165;SHT31;54093;50.014;19.984;2023-11-21T13:51:50;8.82;79.68
67165;SHT31;54093;50.014;19.984;2023-11-21T14:01:19;8.65;80.34
67165;SHT31;54093;50.014;19.984;2023-11-21T14:10:57;8.53;80.40
67165;SHT31;54093;50.014;19.984;2023-11-21T14:20:20;8.49;81.03
67165;SHT31;54093;50.014;19.984;2023-11-21T14:29:46;8.37;81.51
67165;SHT31;54093;50.014;19.984;2023-11-21T14:39:13;8.26;81.88
67165;SHT31;54093;50.014;19.984;2023-11-21T14:48:57;8.14;82.50
67165;SHT31;54093;50.014;19.984;2023-11-21T14:58:41;8.05;82.88
67165;SHT31;54093;50.014;19.984;2023-11-21T15:08:05;8.02;83.45
67165;SHT31;54093;50.014;19.984;2023-11-21T15:17:41;8.01;83.42
67165;SHT31;54093;50.014;19.984;2023-11-21T15:27:04;8.02;83.78
67165;SHT31;54093;50.014;19.984;2023-11-21T15:36:26;8.03;83.73
67165;SHT31;54093;50.014;19.984;2023-11-21T15:45:47;8.01;84.20
67165;SHT31;54093;50.014;19.984;2023-11-21T15:55:09;8.01;83.94
67165;SHT31;54093;50.014;19.984;2023-11-21T16:04:39;7.99;84.42
67165;SHT31;54093;50.014;19.984;2023-11-21T16:14:14;7.99;84.48
67165;SHT31;54093;50.014;19.984;2023-11-21T16:23:42;7.98;84.38
67165;SHT31;54093;50.014;19.984;2023-11-21T16:33:14;7.95;84.51
67165;SHT31;54093;50.014;19.984;2023-11-21T16:43:12;7.92;84.33
67165;SHT31;54093;50.014;19.984;2023-11-21T16:52:49;7.81;84.89
67165;SHT31;54093;50.014;19.984;2023-11-21T17:02:11;7.86;84.60
67165;SHT31;54093;50.014;19.984;2023-11-21T17:11:32;7.75;85.08
67165;SHT31;54093;50.014;19.984;2023-11-21T17:20:53;7.81;84.90
67165;SHT31;54093;50.014;19.984;2023-11-21T17:30:15;7.70;85.68
67165;SHT31;54093;50.014;19.984;2023-11-21T17:39:36;7.70;85.44
67165;SHT31;54093;50.014;19.984;2023-11-21T17:48:59;7.70;85.67
67165;SHT31;54093;50.014;19.984;2023-11-21T17:58:21;7.72;84.71
67165;SHT31;54093;50.014;19.984;2023-11-21T18:07:43;7.62;85.73
67165;SHT31;54093;50.014;19.984;2023-11-21T18:17:17;7.61;86.06
67165;SHT31;54093;50.014;19.984;2023-11-21T18:27:04;7.61;85.63
67165;SHT31;54093;50.014;19.984;2023-11-21T18:36:43;7.30;85.90
67165;SHT31;54093;50.014;19.984;2023-11-21T18:46:04;7.14;85.35
67165;SHT31;54093;50.014;19.984;2023-11-21T18:55:26;6.81;83.67
67165;SHT31;54093;50.014;19.984;2023-11-21T19:04:48;6.42;84.04
67165;SHT31;54093;50.014;19.984;2023-11-21T19:14:09;6.35;85.22
67165;SHT31;54093;50.014;19.984;2023-11-21T19:23:30;6.30;84.70
67165;SHT31;54093;50.014;19.984;2023-11-21T19:32:53;6.09;84.38
67165;SHT31;54093;50.014;19.984;2023-11-21T19:42:14;6.03;85.27
67165;SHT31;54093;50.014;19.984;2023-11-21T19:51:36;5.82;83.96
67165;SHT31;54093;50.014;19.984;2023-11-21T20:00:59;5.59;84.40
67165;SHT31;54093;50.014;19.984;2023-11-21T20:10:20;5.54;84.42
67165;SHT31;54093;50.014;19.984;2023-11-21T20:19:43;5.27;83.99
67165;SHT31;54093;50.014;19.984;2023-11-21T20:29:07;5.06;83.25
67165;SHT31;54093;50.014;19.984;2023-11-21T20:38:29;5.04;84.91
67165;SHT31;54093;50.014;19.984;2023-11-21T20:47:51;4.96;84.85
67165;SHT31;54093;50.014;19.984;2023-11-21T20:57:21;4.77;84.38
67165;SHT31;54093;50.014;19.984;2023-11-21T21:06:43;4.63;84.91
67165;SHT31;54093;50.014;19.984;2023-11-21T21:16:04;4.60;84.64
67165;SHT31;54093;50.014;19.984;2023-11-21T21:25:26;4.44;83.34
67165;SHT31;54093;50.014;19.984;2023-11-21T21:34:47;4.39;84.54
67165;SHT31;54093;50.014;19.984;2023-11-21T21:44:09;4.29;84.23
67165;SHT31;54093;50.014;19.984;2023-11-21T21:53:30;4.28;84.73
67165;SHT31;54093;50.014;19.984;2023-11-21T22:02:51;4.12;84.71
67165;SHT31;54093;50.014;19.984;2023-11-21T22:12:12;4.10;84.93
67165;SHT31;54093;50.014;19.984;2023-11-21T22:21:35;4.08;84.68
67165;SHT31;54093;50.014;19.984;2023-11-21T22:30:56;4.12;85.58
67165;SHT31;54093;50.014;19.984;2023-11-21T22:40:26;4.00;84.97
67165;SHT31;54093;50.014;19.984;2023-11-21T22:49:54;3.79;83.18
67165;SHT31;54093;50.014;19.984;2023-11-21T22:59:20;3.73;83.74
67165;SHT31;54093;50.014;19.984;2023-11-21T23:08:47;3.64;82.98
67165;SHT31;54093;50.014;19.984;2023-11-21T23:18:10;3.44;83.16
67165;SHT31;54093;50.014;19.984;2023-11-21T23:27:36;3.46;83.85
67165;SHT31;54093;50.014;19.984;2023-11-21T23:37:05;3.19;82.92
67165;SHT31;54093;50.014;19.984;2023-11-21T23:46:27;3.25;84.85
67165;SHT31;54093;50.014;19.984;2023-11-21T23:55:50;3.11;83.74
